createdAt,value
2022-09-21T00:01:46.562Z,2.50
2022-09-21T00:04:15.317Z,1.40
2022-09-21T00:06:43.812Z,1.60
2022-09-21T00:09:12.425Z,2.30
2022-09-21T00:11:41.026Z,1.90
2022-09-21T00:14:14.459Z,1.90
2022-09-21T00:16:44.210Z,2.10
2022-09-21T00:19:12.874Z,1.60
2022-09-21T00:21:41.372Z,1.70
2022-09-21T00:24:09.983Z,1.70
2022-09-21T00:26:38.739Z,1.90
2022-09-21T00:29:07.552Z,1.60
2022-09-21T00:31:36.218Z,1.70
2022-09-21T00:34:08.061Z,1.70
2022-09-21T00:36:36.926Z,1.70
2022-09-21T00:39:05.887Z,1.40
2022-09-21T00:41:35.375Z,1.50
2022-09-21T00:44:16.446Z,1.60
2022-09-21T00:46:46.223Z,1.50
2022-09-21T00:49:16.196Z,2.10
2022-09-21T00:51:46.204Z,1.70
2022-09-21T00:54:26.439Z,1.50
2022-09-21T00:56:58.197Z,1.70
2022-09-21T00:59:30.105Z,1.80
2022-09-21T01:01:59.901Z,1.90
2022-09-21T01:04:29.972Z,1.70
2022-09-21T01:07:01.507Z,2.30
2022-09-21T01:09:30.664Z,1.70
2022-09-21T01:12:23.390Z,1.40
2022-09-21T01:15:13.511Z,1.70
2022-09-21T01:18:13.262Z,1.90
2022-09-21T01:20:56.328Z,1.60
2022-09-21T01:23:40.377Z,1.50
2022-09-21T01:26:27.644Z,1.60
2022-09-21T01:29:11.286Z,1.40
2022-09-21T01:32:15.985Z,1.60
2022-09-21T01:34:52.292Z,1.40
2022-09-21T01:37:29.785Z,1.30
2022-09-21T01:40:05.145Z,1.40
2022-09-21T01:42:35.607Z,1.60
2022-09-21T01:45:07.491Z,1.50
2022-09-21T01:47:38.015Z,1.60
2022-09-21T01:50:09.388Z,1.50
2022-09-21T01:52:57.835Z,1.40
2022-09-21T01:55:31.273Z,1.70
2022-09-21T01:58:12.156Z,1.60
2022-09-21T02:00:42.582Z,1.90
2022-09-21T02:03:27.936Z,1.80
2022-09-21T02:05:58.702Z,1.80
2022-09-21T02:08:30.015Z,2.10
2022-09-21T02:11:01.081Z,1.70
2022-09-21T02:13:34.358Z,2.00
2022-09-21T02:16:30.878Z,2.00
2022-09-21T02:19:13.455Z,1.80
2022-09-21T02:22:04.024Z,2.20
2022-09-21T02:24:52.331Z,2.20
2022-09-21T02:27:48.922Z,2.10
2022-09-21T02:30:19.538Z,2.10
2022-09-21T02:33:05.406Z,2.10
2022-09-21T02:35:52.352Z,2.40
2022-09-21T02:38:32.968Z,1.70
2022-09-21T02:41:24.731Z,2.40
2022-09-21T02:44:17.586Z,2.70
2022-09-21T02:47:02.147Z,2.10
2022-09-21T02:49:43.748Z,2.40
2022-09-21T02:52:17.316Z,2.60
2022-09-21T02:54:50.922Z,2.50
2022-09-21T02:57:22.178Z,2.20
2022-09-21T02:59:52.846Z,2.30
2022-09-21T03:02:21.495Z,2.80
2022-09-21T03:04:50.319Z,2.80
2022-09-21T03:07:19.008Z,2.20
2022-09-21T03:09:47.536Z,2.50
2022-09-21T03:12:16.088Z,2.70
2022-09-21T03:14:45.038Z,2.50
2022-09-21T03:17:13.478Z,2.40
2022-09-21T03:19:42.090Z,3.00
2022-09-21T03:22:10.669Z,2.80
2022-09-21T03:24:47.978Z,2.40
2022-09-21T03:27:20.061Z,2.80
2022-09-21T03:29:50.115Z,2.60
2022-09-21T03:32:18.985Z,3.10
2022-09-21T03:34:47.504Z,3.40
2022-09-21T03:37:16.317Z,3.10
2022-09-21T03:39:46.431Z,3.10
2022-09-21T03:42:15.114Z,2.90
2022-09-21T03:44:44.008Z,3.20
2022-09-21T03:47:12.733Z,4.20
2022-09-21T03:49:41.440Z,4.90
2022-09-21T03:52:10.025Z,4.10
2022-09-21T03:54:38.620Z,3.90
2022-09-21T03:57:07.147Z,4.00
2022-09-21T03:59:35.844Z,3.90
2022-09-21T04:02:04.492Z,4.50
2022-09-21T04:04:33.094Z,4.20
2022-09-21T04:07:01.688Z,4.10
2022-09-21T04:09:30.785Z,4.50
2022-09-21T04:11:59.254Z,4.50
2022-09-21T04:14:28.049Z,3.90
2022-09-21T04:16:56.941Z,4.60
2022-09-21T04:19:26.146Z,4.50
2022-09-21T04:21:56.453Z,4.40
2022-09-21T04:24:24.990Z,4.80
2022-09-21T04:26:53.526Z,4.00
2022-09-21T04:29:22.331Z,4.40
2022-09-21T04:31:50.876Z,3.30
2022-09-21T04:34:19.468Z,3.60
2022-09-21T04:36:48.489Z,4.00
2022-09-21T04:39:17.018Z,3.50
2022-09-21T04:41:45.852Z,3.40
2022-09-21T04:44:14.469Z,3.20
2022-09-21T04:46:42.935Z,3.40
2022-09-21T04:49:11.450Z,3.40
2022-09-21T04:51:39.985Z,3.40
2022-09-21T04:54:08.598Z,3.10
2022-09-21T04:56:37.596Z,3.50
2022-09-21T04:59:06.139Z,3.30
2022-09-21T05:01:35.049Z,3.90
2022-09-21T05:04:03.883Z,4.50
2022-09-21T05:06:34.081Z,3.80
2022-09-21T05:09:21.010Z,3.90
2022-09-21T05:11:50.182Z,4.10
2022-09-21T05:14:18.789Z,4.50
2022-09-21T05:16:50.073Z,3.90
2022-09-21T05:19:18.693Z,4.90
2022-09-21T05:21:47.381Z,3.60
2022-09-21T05:24:16.088Z,4.50
2022-09-21T05:26:44.587Z,5.40
2022-09-21T05:29:13.445Z,4.20
2022-09-21T05:32:01.670Z,5.10
2022-09-21T05:34:42.526Z,4.20
2022-09-21T05:37:38.295Z,4.30
2022-09-21T05:40:07.798Z,4.00
2022-09-21T05:42:36.883Z,3.50
2022-09-21T05:45:06.536Z,3.90
2022-09-21T05:48:03.438Z,3.40
2022-09-21T05:51:00.152Z,3.30
2022-09-21T05:53:31.551Z,3.20
2022-09-21T05:56:14.272Z,3.30
2022-09-21T05:59:04.627Z,3.00
2022-09-21T06:01:51.905Z,2.50
2022-09-21T06:04:20.787Z,3.00
2022-09-21T06:06:50.040Z,3.80
2022-09-21T06:09:18.792Z,3.90
2022-09-21T06:11:48.012Z,3.30
2022-09-21T06:14:16.587Z,3.30
2022-09-21T06:16:45.100Z,3.00
2022-09-21T06:19:14.192Z,3.20
2022-09-21T06:21:42.771Z,3.10
2022-09-21T06:24:12.142Z,2.00
2022-09-21T06:26:40.666Z,3.50
2022-09-21T06:29:09.187Z,2.40
2022-09-21T06:31:37.786Z,3.00
2022-09-21T06:34:06.293Z,3.50
2022-09-21T06:36:34.848Z,4.80
2022-09-21T06:39:03.610Z,4.60
2022-09-21T06:41:32.796Z,5.70
2022-09-21T06:44:01.505Z,3.30
2022-09-21T06:46:30.199Z,2.90
2022-09-21T06:48:58.850Z,2.80
2022-09-21T06:51:27.425Z,3.20
2022-09-21T06:53:57.249Z,3.60
2022-09-21T06:56:26.905Z,2.80
2022-09-21T06:58:56.102Z,3.00
2022-09-21T07:01:25.108Z,3.60
2022-09-21T07:03:54.574Z,2.90
2022-09-21T07:06:23.117Z,3.70
2022-09-21T07:11:43.549Z,2.30
2022-09-21T07:14:12.270Z,2.30
2022-09-21T07:16:41.368Z,3.20
2022-09-21T07:19:11.296Z,3.00
2022-09-21T07:21:40.507Z,3.90
2022-09-21T07:24:12.524Z,3.60
2022-09-21T07:26:41.582Z,2.60
2022-09-21T07:29:10.187Z,2.40
2022-09-21T07:31:38.849Z,1.70
2022-09-21T07:34:07.559Z,1.60
2022-09-21T07:36:36.230Z,1.50
2022-09-21T07:39:05.523Z,2.20
2022-09-21T07:41:34.300Z,2.00
2022-09-21T07:44:04.091Z,1.80
2022-09-21T07:46:33.172Z,2.50
2022-09-21T07:49:01.856Z,2.20
2022-09-21T07:51:30.450Z,1.10
2022-09-21T07:53:58.958Z,1.60
2022-09-21T07:56:27.564Z,2.00
2022-09-21T07:59:08.588Z,2.60
2022-09-21T08:01:42.164Z,2.30
2022-09-21T08:04:11.727Z,2.20
2022-09-21T08:06:40.589Z,1.80
2022-09-21T08:09:09.371Z,3.30
2022-09-21T08:11:39.738Z,2.10
2022-09-21T08:14:08.342Z,2.20
2022-09-21T08:16:39.057Z,3.10
2022-09-21T08:19:07.741Z,2.60
2022-09-21T08:21:36.461Z,1.70
2022-09-21T08:24:05.338Z,2.00
2022-09-21T08:26:33.945Z,2.30
2022-09-21T08:29:03.256Z,2.50
2022-09-21T08:31:32.001Z,2.60
2022-09-21T08:34:01.428Z,2.50
2022-09-21T08:36:29.993Z,2.20
2022-09-21T08:38:58.650Z,2.40
2022-09-21T08:41:46.562Z,2.70
2022-09-21T08:44:15.361Z,2.20
2022-09-21T08:46:47.012Z,2.50
2022-09-21T08:49:27.194Z,3.10
2022-09-21T08:52:06.299Z,2.10
2022-09-21T08:54:50.149Z,2.50
2022-09-21T08:57:20.399Z,1.90
2022-09-21T08:59:50.496Z,2.50
2022-09-21T09:02:52.884Z,1.80
2022-09-21T09:05:39.930Z,2.60
2022-09-21T09:08:33.813Z,2.10
2022-09-21T09:11:49.309Z,2.30
2022-09-21T09:14:34.388Z,1.90
2022-09-21T09:17:30.664Z,1.60
2022-09-21T09:20:05.852Z,2.20
2022-09-21T09:22:44.386Z,2.40
2022-09-21T09:25:22.180Z,2.60
2022-09-21T09:28:06.219Z,2.30
2022-09-21T09:30:36.161Z,3.00
2022-09-21T09:33:25.914Z,2.10
2022-09-21T09:36:06.832Z,1.60
2022-09-21T09:38:57.599Z,2.30
2022-09-21T09:42:03.261Z,1.70
2022-09-21T09:44:34.932Z,1.70
2022-09-21T09:47:03.775Z,2.40
2022-09-21T09:49:44.591Z,2.70
2022-09-21T09:52:15.638Z,2.30
2022-09-21T09:54:44.884Z,2.10
2022-09-21T09:57:13.972Z,1.80
2022-09-21T09:59:54.050Z,2.00
2022-09-21T10:02:26.767Z,2.00
2022-09-21T10:05:06.363Z,2.40
2022-09-21T10:07:41.342Z,2.10
2022-09-21T10:10:22.304Z,2.30
2022-09-21T10:12:53.029Z,2.10
2022-09-21T10:15:25.439Z,2.60
2022-09-21T10:18:20.329Z,2.50
2022-09-21T10:20:58.136Z,2.10
2022-09-21T10:23:28.038Z,2.30
2022-09-21T10:26:01.846Z,2.20
2022-09-21T10:28:31.790Z,2.30
2022-09-21T10:31:11.764Z,2.90
2022-09-21T10:34:06.225Z,1.70
2022-09-21T10:36:39.527Z,3.40
2022-09-21T10:39:29.638Z,3.20
2022-09-21T10:42:06.448Z,1.70
2022-09-21T10:44:47.098Z,2.70
2022-09-21T10:47:24.524Z,2.60
2022-09-21T10:49:55.687Z,2.70
2022-09-21T10:52:36.468Z,3.20
2022-09-21T10:55:07.347Z,2.80
2022-09-21T10:57:36.267Z,2.90
2022-09-21T11:00:29.707Z,3.10
2022-09-21T11:03:01.679Z,2.30
2022-09-21T11:05:35.483Z,2.60
2022-09-21T11:08:11.849Z,2.60
2022-09-21T11:10:50.546Z,2.40
2022-09-21T11:13:45.452Z,2.50
2022-09-21T11:16:13.938Z,2.50
2022-09-21T11:18:57.881Z,2.00
2022-09-21T11:21:50.808Z,1.90
2022-09-21T11:24:43.092Z,2.80
2022-09-21T11:27:24.768Z,2.30
2022-09-21T11:30:18.903Z,2.30
2022-09-21T11:35:42.408Z,2.30
2022-09-21T11:38:34.604Z,2.10
2022-09-21T11:41:14.161Z,2.40
2022-09-21T11:44:16.499Z,2.20
2022-09-21T11:46:55.763Z,1.60
2022-09-21T11:49:36.536Z,1.70
2022-09-21T11:52:40.548Z,1.80
2022-09-21T11:55:17.063Z,2.00
2022-09-21T11:58:05.453Z,2.50
2022-09-21T12:01:00.690Z,5.90
2022-09-21T12:03:41.618Z,2.60
2022-09-21T12:06:36.706Z,2.80
2022-09-21T12:09:18.346Z,2.40
2022-09-21T12:12:10.774Z,2.30
2022-09-21T12:15:09.127Z,2.30
2022-09-21T12:18:17.742Z,2.10
2022-09-21T12:20:53.207Z,1.50
2022-09-21T12:23:43.664Z,2.20
2022-09-21T12:26:18.892Z,2.20
2022-09-21T12:28:52.545Z,1.60
2022-09-21T12:34:19.157Z,1.60
2022-09-21T12:37:00.318Z,1.50
2022-09-21T12:39:36.864Z,1.50
2022-09-21T12:42:27.987Z,2.10
2022-09-21T12:45:03.792Z,1.90
2022-09-21T12:47:47.464Z,2.60
2022-09-21T12:50:22.663Z,1.90
2022-09-21T12:52:52.878Z,1.80
2022-09-21T12:55:22.234Z,2.20
2022-09-21T12:58:16.390Z,2.90
2022-09-21T13:01:00.999Z,2.10
2022-09-21T13:04:02.463Z,2.20
2022-09-21T13:06:49.803Z,2.00
2022-09-21T13:09:21.182Z,1.90
2022-09-21T13:12:34.981Z,2.30
2022-09-21T13:15:14.352Z,2.20
2022-09-21T13:17:43.442Z,2.20
2022-09-21T13:20:22.163Z,2.50
2022-09-21T13:23:01.238Z,2.50
2022-09-21T13:25:32.789Z,2.90
2022-09-21T13:28:04.583Z,2.00
2022-09-21T13:30:40.734Z,2.10
2022-09-21T13:33:18.493Z,1.90
2022-09-21T13:36:13.723Z,2.60
2022-09-21T13:38:44.987Z,2.10
2022-09-21T13:41:19.576Z,2.20
2022-09-21T13:43:59.751Z,3.00
2022-09-21T13:46:37.420Z,2.10
2022-09-21T13:49:22.951Z,1.80
2022-09-21T13:52:03.017Z,2.10
2022-09-21T13:54:34.608Z,1.70
2022-09-21T13:57:16.043Z,2.90
2022-09-21T13:59:47.464Z,2.70
2022-09-21T14:02:28.140Z,3.40
2022-09-21T14:04:58.049Z,3.20
2022-09-21T14:07:31.670Z,3.00
2022-09-21T14:10:04.481Z,2.80
2022-09-21T14:12:40.084Z,3.40
2022-09-21T14:15:18.383Z,2.50
2022-09-21T14:18:18.258Z,1.80
2022-09-21T14:21:08.656Z,2.60
2022-09-21T14:23:38.901Z,2.60
2022-09-21T14:26:36.493Z,2.20
2022-09-21T14:29:32.536Z,3.10
2022-09-21T14:32:04.827Z,2.50
2022-09-21T14:34:37.465Z,2.30
2022-09-21T14:37:27.973Z,2.20
2022-09-21T14:39:58.653Z,2.60
2022-09-21T14:42:29.589Z,2.30
2022-09-21T14:45:02.456Z,2.90
2022-09-21T14:47:55.893Z,2.80
2022-09-21T14:50:29.535Z,2.50
2022-09-21T14:55:49.032Z,2.40
2022-09-21T14:58:28.924Z,3.50
2022-09-21T15:01:21.803Z,2.10
2022-09-21T15:04:19.422Z,2.50
2022-09-21T15:07:21.455Z,2.80
2022-09-21T15:10:34.894Z,2.70
2022-09-21T15:13:36.936Z,2.90
2022-09-21T15:16:24.076Z,3.20
2022-09-21T15:19:21.283Z,2.90
2022-09-21T15:22:12.433Z,2.50
2022-09-21T15:24:59.772Z,3.60
2022-09-21T15:27:34.009Z,3.20
2022-09-21T15:30:06.316Z,3.00
2022-09-21T15:32:42.159Z,3.30
2022-09-21T15:35:20.704Z,2.70
2022-09-21T15:37:51.329Z,2.60
2022-09-21T15:40:28.587Z,3.50
2022-09-21T15:43:02.160Z,3.00
2022-09-21T15:45:45.556Z,3.20
2022-09-21T15:48:14.652Z,3.30
2022-09-21T15:50:46.388Z,2.80
2022-09-21T15:53:30.505Z,2.70
2022-09-21T15:56:03.040Z,3.00
2022-09-21T15:58:37.660Z,3.20
2022-09-21T16:01:18.003Z,3.00
2022-09-21T16:03:46.967Z,3.10
2022-09-21T16:06:26.379Z,3.30
2022-09-21T16:08:55.696Z,3.10
2022-09-21T16:11:27.951Z,2.90
2022-09-21T16:14:30.637Z,3.40
2022-09-21T16:17:18.366Z,3.00
2022-09-21T16:19:51.241Z,2.60
2022-09-21T16:22:44.604Z,3.80
2022-09-21T16:25:30.776Z,3.30
2022-09-21T16:28:29.718Z,3.00
2022-09-21T16:30:59.399Z,3.10
2022-09-21T16:33:44.988Z,3.00
2022-09-21T16:36:22.600Z,3.30
2022-09-21T16:38:55.510Z,3.00
2022-09-21T16:41:32.653Z,2.80
2022-09-21T16:44:02.045Z,3.20
2022-09-21T16:46:32.309Z,2.60
2022-09-21T16:49:01.003Z,2.80
2022-09-21T16:51:29.781Z,3.00
2022-09-21T16:53:58.857Z,3.10
2022-09-21T16:56:27.467Z,3.40
2022-09-21T16:58:57.448Z,2.90
2022-09-21T17:01:27.054Z,2.80
2022-09-21T17:03:57.137Z,2.90
2022-09-21T17:06:25.776Z,3.40
2022-09-21T17:08:54.366Z,3.10
2022-09-21T17:11:24.601Z,2.80
2022-09-21T17:13:53.664Z,2.70
2022-09-21T17:16:22.887Z,3.10
2022-09-21T17:18:51.640Z,3.50
2022-09-21T17:21:20.535Z,3.40
2022-09-21T17:23:49.529Z,3.00
2022-09-21T17:26:19.560Z,3.50
2022-09-21T17:28:48.389Z,3.70
2022-09-21T17:31:17.211Z,3.50
2022-09-21T17:33:48.066Z,3.10
2022-09-21T17:36:18.394Z,3.00
2022-09-21T17:38:47.052Z,3.40
2022-09-21T17:41:25.708Z,3.40
2022-09-21T17:44:04.360Z,3.30
2022-09-21T17:46:51.656Z,3.30
2022-09-21T17:49:20.670Z,3.50
2022-09-21T17:52:08.105Z,3.60
2022-09-21T17:54:40.123Z,3.30
2022-09-21T17:57:22.502Z,3.60
2022-09-21T18:00:04.646Z,3.90
2022-09-21T18:02:34.299Z,3.70
2022-09-21T18:05:15.269Z,3.30
2022-09-21T18:07:44.150Z,3.60
2022-09-21T18:10:16.770Z,4.10
2022-09-21T18:13:03.873Z,3.10
2022-09-21T18:16:20.099Z,3.40
2022-09-21T18:19:13.196Z,3.30
2022-09-21T18:21:44.314Z,3.70
2022-09-21T18:24:22.026Z,3.80
2022-09-21T18:26:52.794Z,3.40
2022-09-21T18:29:46.572Z,3.50
2022-09-21T18:32:49.625Z,3.70
2022-09-21T18:35:47.566Z,3.50
2022-09-21T18:38:24.767Z,3.30
2022-09-21T18:41:13.120Z,3.20
2022-09-21T18:44:00.779Z,3.60
2022-09-21T18:46:41.918Z,3.50
2022-09-21T18:49:13.519Z,3.50
2022-09-21T18:52:07.751Z,3.40
2022-09-21T18:54:36.402Z,3.20
2022-09-21T18:57:12.498Z,2.80
2022-09-21T18:59:42.467Z,3.00
2022-09-21T19:02:15.090Z,2.90
2022-09-21T19:04:45.270Z,3.00
2022-09-21T19:07:18.681Z,2.70
2022-09-21T19:09:53.399Z,3.30
2022-09-21T19:12:49.204Z,2.60
2022-09-21T19:15:48.677Z,3.00
2022-09-21T19:18:57.625Z,2.30
2022-09-21T19:21:27.646Z,2.60
2022-09-21T19:24:08.698Z,2.10
2022-09-21T19:26:56.256Z,2.10
2022-09-21T19:30:02.386Z,2.00
2022-09-21T19:32:44.850Z,2.60
2022-09-21T19:35:31.285Z,2.10
2022-09-21T19:38:02.069Z,1.90
2022-09-21T19:40:39.026Z,2.70
2022-09-21T19:43:33.989Z,2.00
2022-09-21T19:46:33.879Z,2.00
2022-09-21T19:49:18.306Z,1.40
2022-09-21T19:51:52.565Z,2.70
2022-09-21T19:54:42.423Z,2.40
2022-09-21T19:57:35.393Z,2.10
2022-09-21T20:00:10.237Z,2.60
2022-09-21T20:03:03.797Z,1.90
2022-09-21T20:05:41.087Z,2.00
2022-09-21T20:08:21.954Z,1.80
2022-09-21T20:11:06.340Z,1.80
2022-09-21T20:16:33.750Z,1.30
2022-09-21T20:19:18.416Z,2.00
2022-09-21T20:21:51.741Z,1.90
2022-09-21T20:24:52.993Z,2.20
2022-09-21T20:27:42.641Z,2.00
2022-09-21T20:30:14.398Z,2.30
2022-09-21T20:32:46.873Z,2.00
2022-09-21T20:35:30.921Z,2.80
2022-09-21T20:38:02.746Z,6.30
2022-09-21T20:40:32.597Z,3.00
2022-09-21T20:43:02.071Z,2.10
2022-09-21T20:45:33.568Z,1.90
2022-09-21T20:48:15.318Z,2.00
2022-09-21T20:50:46.726Z,1.60
2022-09-21T20:53:16.064Z,1.60
2022-09-21T20:55:54.092Z,2.20
2022-09-21T20:58:24.234Z,1.70
2022-09-21T21:00:58.570Z,1.90
2022-09-21T21:03:27.771Z,1.70
2022-09-21T21:06:10.420Z,1.80
2022-09-21T21:08:39.379Z,1.80
2022-09-21T21:11:08.475Z,2.40
2022-09-21T21:13:37.981Z,2.40
2022-09-21T21:16:11.778Z,2.00
2022-09-21T21:18:41.724Z,1.90
2022-09-21T21:21:11.420Z,1.70
2022-09-21T21:24:06.200Z,2.00
2022-09-21T21:26:57.799Z,1.80
2022-09-21T21:29:24.782Z,1.70
2022-09-21T21:31:53.627Z,1.90
2022-09-21T21:34:23.694Z,2.00
2022-09-21T21:36:53.713Z,1.80
2022-09-21T21:39:22.296Z,2.10
2022-09-21T21:41:50.981Z,1.80
2022-09-21T21:44:19.565Z,1.90
2022-09-21T21:46:48.454Z,2.40
2022-09-21T21:49:17.759Z,2.20
2022-09-21T21:51:49.487Z,2.10
2022-09-21T21:54:19.224Z,2.50
2022-09-21T21:56:48.116Z,2.10
2022-09-21T21:59:17.890Z,2.10
2022-09-21T22:01:47.538Z,2.20
2022-09-21T22:04:16.770Z,2.30
2022-09-21T22:06:45.286Z,2.90
2022-09-21T22:09:15.001Z,2.20
2022-09-21T22:11:43.760Z,2.10
2022-09-21T22:14:13.030Z,1.80
2022-09-21T22:16:41.684Z,2.40
2022-09-21T22:19:10.306Z,2.10
2022-09-21T22:21:48.184Z,2.80
2022-09-21T22:24:20.025Z,2.30
2022-09-21T22:26:49.087Z,2.50
2022-09-21T22:29:18.172Z,2.80
2022-09-21T22:31:50.346Z,2.90
2022-09-21T22:34:20.510Z,2.10
2022-09-21T22:36:50.642Z,2.50
2022-09-21T22:39:19.161Z,2.30
2022-09-21T22:41:47.710Z,2.70
2022-09-21T22:44:16.363Z,2.90
2022-09-21T22:46:44.896Z,2.40
2022-09-21T22:49:13.374Z,2.40
2022-09-21T22:51:41.925Z,2.20
2022-09-21T22:54:10.449Z,2.50
2022-09-21T22:56:39.208Z,2.50
2022-09-21T22:59:08.609Z,2.30
2022-09-21T23:01:39.339Z,2.90
2022-09-21T23:04:10.825Z,2.80
2022-09-21T23:06:42.500Z,2.60
2022-09-21T23:09:20.006Z,2.70
2022-09-21T23:11:53.872Z,2.90
2022-09-21T23:14:23.531Z,3.00
2022-09-21T23:16:52.269Z,3.00
2022-09-21T23:19:20.863Z,2.70
2022-09-21T23:21:50.698Z,3.10
2022-09-21T23:24:20.193Z,2.80
2022-09-21T23:26:51.891Z,2.70
2022-09-21T23:29:20.671Z,2.80
2022-09-21T23:31:49.320Z,2.90
2022-09-21T23:34:18.167Z,3.10
2022-09-21T23:36:46.815Z,3.30
2022-09-21T23:39:16.081Z,2.60
2022-09-21T23:41:45.529Z,2.80
2022-09-21T23:44:14.328Z,3.00
2022-09-21T23:46:43.416Z,3.20
2022-09-21T23:49:12.228Z,2.70
2022-09-21T23:51:41.612Z,3.10
2022-09-21T23:54:10.821Z,2.80
2022-09-21T23:56:39.443Z,2.90
2022-09-21T23:59:08.178Z,3.20
